Cap-de-la-Madeleine, Canada
Current Conditions -  °F | °C
As of 12:00 AM on Tuesday 23 Dec 2014 (Local Time) from CYRQ Reporting Station
Overcast Overcast  
Wind Chill: 13°   Ceiling: 4700
Heat Index: 23°   Visibility: 9mi
Dew Point: 19°   Wind: 9mph
Humidity: 86%   Direction: 40°NE
Pressure: 30.3"   Gusts: NA
Location:  46.38°N, 72.55°W
Report Text: CYRQ 230500Z AUTO 04008KT 9SM OVC047 M05/M07 A3030 RMK SLP265
Loading
Personal Weather Stations






























Interactive Weather Map New forecast layout! Learn more

10-Day Weather Forecast

Advertisements
Track Severe Weather on mobile